createdAt,value
2022-12-24T00:01:50.621Z,2.50
2022-12-24T00:04:20.074Z,2.13
2022-12-24T00:06:49.521Z,2.67
2022-12-24T00:09:18.964Z,2.30
2022-12-24T00:11:48.396Z,2.10
2022-12-24T00:14:17.849Z,1.63
2022-12-24T00:16:47.597Z,2.00
2022-12-24T00:19:17.170Z,1.83
2022-12-24T00:21:46.606Z,2.10
2022-12-24T00:24:16.076Z,2.03
2022-12-24T00:26:45.497Z,2.03
2022-12-24T00:29:14.956Z,1.67
2022-12-24T00:31:44.388Z,1.20
2022-12-24T00:34:13.856Z,0.90
2022-12-24T00:36:43.270Z,0.90
2022-12-24T00:39:12.727Z,0.77
2022-12-24T00:41:42.429Z,1.65
2022-12-24T00:44:13.193Z,1.07
2022-12-24T00:46:43.587Z,2.13
2022-12-24T00:49:14.427Z,1.70
2022-12-24T00:51:43.927Z,1.60
2022-12-24T00:54:34.255Z,1.03
2022-12-24T00:57:03.710Z,1.10
2022-12-24T00:59:33.180Z,1.17
2022-12-24T01:02:02.710Z,1.23
2022-12-24T01:04:49.820Z,1.77
2022-12-24T01:07:19.322Z,1.53
2022-12-24T01:09:48.815Z,1.00
2022-12-24T01:12:18.283Z,1.47
2022-12-24T01:14:47.713Z,1.63
2022-12-24T01:17:17.161Z,1.80
2022-12-24T01:19:46.602Z,1.50
2022-12-24T01:22:16.110Z,1.50
2022-12-24T01:24:46.259Z,1.50
2022-12-24T01:27:15.686Z,1.30
2022-12-24T01:29:45.159Z,1.50
2022-12-24T01:32:14.595Z,1.50
2022-12-24T01:34:44.181Z,1.00
2022-12-24T01:37:13.646Z,0.87
2022-12-24T01:39:43.102Z,1.10
2022-12-24T01:42:48.245Z,1.00
2022-12-24T01:45:50.737Z,1.63
2022-12-24T01:48:24.790Z,1.40
2022-12-24T01:51:04.393Z,1.60
2022-12-24T01:53:37.719Z,2.20
2022-12-24T01:56:09.276Z,1.43
2022-12-24T01:58:40.980Z,1.10
2022-12-24T02:01:11.131Z,1.20
2022-12-24T02:03:40.944Z,1.30
2022-12-24T02:06:12.360Z,1.83
2022-12-24T02:08:42.056Z,1.30
2022-12-24T02:11:20.787Z,1.27
2022-12-24T02:13:57.920Z,1.30
2022-12-24T02:16:49.778Z,0.83
2022-12-24T02:19:38.529Z,1.07
2022-12-24T02:22:18.591Z,1.20
2022-12-24T02:25:22.621Z,1.43
2022-12-24T02:28:26.703Z,1.33
2022-12-24T02:31:03.874Z,1.30
2022-12-24T02:33:47.026Z,1.00
2022-12-24T02:36:36.258Z,0.73
2022-12-24T02:39:25.857Z,1.00
2022-12-24T02:42:08.616Z,0.80
2022-12-24T02:44:55.718Z,1.00
2022-12-24T02:47:28.868Z,1.07
2022-12-24T02:49:58.327Z,1.00
2022-12-24T02:52:47.288Z,1.70
2022-12-24T02:55:39.282Z,1.00
2022-12-24T02:59:09.979Z,1.00
2022-12-24T03:02:28.330Z,0.93
2022-12-24T03:05:32.469Z,1.07
2022-12-24T03:08:09.050Z,0.80
2022-12-24T03:11:00.787Z,1.07
2022-12-24T03:13:30.987Z,1.10
2022-12-24T03:16:01.559Z,0.50
2022-12-24T03:18:32.219Z,0.63
2022-12-24T03:21:09.170Z,0.77
2022-12-24T03:23:38.927Z,0.60
2022-12-24T03:26:12.789Z,0.93
2022-12-24T03:28:43.851Z,1.00
2022-12-24T03:31:14.204Z,0.93
2022-12-24T03:33:44.226Z,1.10
2022-12-24T03:36:13.906Z,1.10
2022-12-24T03:38:43.701Z,1.00
2022-12-24T03:41:13.179Z,0.90
2022-12-24T03:43:42.628Z,1.50
2022-12-24T03:46:12.168Z,2.10
2022-12-24T03:48:41.673Z,1.43
2022-12-24T03:51:26.180Z,1.13
2022-12-24T03:53:58.275Z,1.30
2022-12-24T03:56:28.316Z,1.60
2022-12-24T03:58:57.794Z,1.53
2022-12-24T04:01:27.573Z,1.83
2022-12-24T04:03:57.176Z,1.40
2022-12-24T04:06:26.657Z,1.30
2022-12-24T04:08:56.123Z,1.20
2022-12-24T04:11:25.666Z,1.13
2022-12-24T04:13:55.272Z,0.80
2022-12-24T04:16:24.859Z,0.90
2022-12-24T04:18:54.327Z,1.00
2022-12-24T04:21:23.834Z,0.80
2022-12-24T04:23:53.594Z,0.90
2022-12-24T04:26:23.149Z,0.90
2022-12-24T04:28:52.654Z,0.93
2022-12-24T04:31:22.265Z,0.73
2022-12-24T04:33:54.052Z,0.90
2022-12-24T04:36:23.914Z,0.90
2022-12-24T04:38:53.403Z,0.93
2022-12-24T04:41:25.307Z,0.80
2022-12-24T04:43:56.650Z,0.87
2022-12-24T04:46:30.824Z,1.00
2022-12-24T04:49:01.716Z,0.90
2022-12-24T04:51:31.557Z,0.70
2022-12-24T04:54:00.974Z,1.10
2022-12-24T04:56:34.240Z,1.00
2022-12-24T04:59:03.957Z,1.17
2022-12-24T05:01:35.090Z,1.17
2022-12-24T05:04:06.205Z,1.00
2022-12-24T05:06:35.808Z,1.10
2022-12-24T05:09:05.250Z,0.93
2022-12-24T05:11:34.699Z,1.23
2022-12-24T05:14:04.209Z,0.93
2022-12-24T05:16:34.306Z,1.40
2022-12-24T05:19:03.780Z,1.50
2022-12-24T05:21:33.282Z,1.97
2022-12-24T05:24:20.879Z,1.73
2022-12-24T05:26:59.691Z,1.60
2022-12-24T05:29:29.203Z,1.60
2022-12-24T05:31:58.646Z,2.70
2022-12-24T05:34:28.097Z,1.67
2022-12-24T05:36:57.537Z,2.10
2022-12-24T05:39:26.982Z,1.90
2022-12-24T05:41:56.426Z,1.70
2022-12-24T05:44:25.872Z,2.57
2022-12-24T05:46:55.329Z,1.90
2022-12-24T05:49:24.869Z,1.33
2022-12-24T05:51:54.284Z,1.60
2022-12-24T05:54:23.749Z,1.80
2022-12-24T05:56:53.172Z,1.80
2022-12-24T05:59:22.630Z,1.53
2022-12-24T06:01:52.197Z,1.50
2022-12-24T06:04:28.226Z,1.30
2022-12-24T06:06:52.856Z,1.60
2022-12-24T06:09:22.313Z,1.53
2022-12-24T06:11:51.753Z,1.10
2022-12-24T06:14:21.203Z,1.63
2022-12-24T06:16:50.632Z,1.17
2022-12-24T06:19:20.200Z,1.10
2022-12-24T06:21:49.610Z,1.30
2022-12-24T06:24:19.104Z,1.20
2022-12-24T06:26:48.563Z,0.93
2022-12-24T06:29:18.038Z,1.47
2022-12-24T06:31:47.501Z,1.03
2022-12-24T06:34:16.987Z,1.07
2022-12-24T06:36:46.452Z,1.43
2022-12-24T06:39:15.893Z,1.30
2022-12-24T06:41:45.360Z,1.40
2022-12-24T06:44:14.788Z,1.50
2022-12-24T06:46:44.418Z,1.70
2022-12-24T06:49:13.981Z,1.50
2022-12-24T06:51:43.426Z,1.20
2022-12-24T06:54:12.869Z,1.50
2022-12-24T06:56:42.338Z,1.70
2022-12-24T06:59:11.754Z,1.30
2022-12-24T07:01:41.367Z,1.60
2022-12-24T07:04:16.248Z,1.50
2022-12-24T07:06:42.192Z,1.33
2022-12-24T07:09:14.934Z,1.40
2022-12-24T07:11:44.373Z,1.53
2022-12-24T07:14:14.067Z,1.33
2022-12-24T07:16:43.750Z,1.30
2022-12-24T07:19:13.782Z,1.40
2022-12-24T07:21:43.229Z,1.80
2022-12-24T07:24:12.946Z,2.20
2022-12-24T07:26:42.396Z,2.43
2022-12-24T07:29:11.846Z,2.00
2022-12-24T07:31:41.452Z,1.87
2022-12-24T07:34:10.980Z,1.47
2022-12-24T07:36:40.887Z,1.20
2022-12-24T07:39:10.336Z,1.33
2022-12-24T07:41:41.934Z,1.37
2022-12-24T07:44:17.411Z,1.50
2022-12-24T07:46:47.205Z,1.43
2022-12-24T07:49:16.646Z,1.63
2022-12-24T07:51:46.102Z,1.40
2022-12-24T07:54:15.543Z,1.53
2022-12-24T07:56:45.367Z,1.50
2022-12-24T07:59:15.745Z,1.37
2022-12-24T08:01:45.846Z,1.83
2022-12-24T08:04:15.475Z,1.20
2022-12-24T08:06:44.908Z,1.80
2022-12-24T08:09:15.211Z,1.50
2022-12-24T08:11:51.575Z,1.50
2022-12-24T08:14:16.749Z,1.50
2022-12-24T08:16:46.415Z,1.53
2022-12-24T08:19:15.931Z,1.87
2022-12-24T08:21:45.384Z,1.40
2022-12-24T08:24:14.823Z,2.20
2022-12-24T08:26:44.282Z,1.80
2022-12-24T08:29:13.781Z,2.57
2022-12-24T08:31:43.989Z,2.77
2022-12-24T08:34:13.781Z,2.50
2022-12-24T08:36:43.247Z,2.73
2022-12-24T08:39:13.813Z,2.10
2022-12-24T08:41:43.276Z,1.80
2022-12-24T08:44:12.712Z,2.07
2022-12-24T08:46:42.329Z,1.70
2022-12-24T08:49:11.737Z,2.10
2022-12-24T08:51:41.193Z,1.77
2022-12-24T08:54:10.632Z,1.73
2022-12-24T08:56:40.109Z,2.63
2022-12-24T08:59:09.520Z,2.37
2022-12-24T09:01:39.118Z,2.17
2022-12-24T09:04:09.559Z,2.63
2022-12-24T09:06:39.028Z,2.00
2022-12-24T09:09:08.993Z,2.40
2022-12-24T09:11:38.454Z,2.00
2022-12-24T09:14:07.881Z,1.93
2022-12-24T09:16:37.426Z,2.17
2022-12-24T09:19:06.866Z,1.80
2022-12-24T09:21:36.322Z,1.70
2022-12-24T09:24:06.967Z,1.90
2022-12-24T09:26:36.503Z,1.90
2022-12-24T09:29:05.944Z,1.77
2022-12-24T09:31:36.089Z,3.20
2022-12-24T09:34:05.604Z,2.37
2022-12-24T09:36:36.267Z,2.60
2022-12-24T09:39:05.968Z,2.33
2022-12-24T09:42:11.096Z,2.03
2022-12-24T09:44:53.937Z,1.77
2022-12-24T09:47:42.869Z,1.90
2022-12-24T09:50:31.288Z,1.60
2022-12-24T09:53:05.690Z,1.57
2022-12-24T09:55:45.433Z,1.50
2022-12-24T09:58:25.303Z,1.67
2022-12-24T10:00:56.895Z,1.87
2022-12-24T10:03:26.633Z,1.57
2022-12-24T10:06:23.591Z,1.67
2022-12-24T10:09:13.416Z,2.20
2022-12-24T10:11:53.104Z,2.00
2022-12-24T10:14:56.883Z,1.73
2022-12-24T10:17:51.587Z,2.10
2022-12-24T10:20:37.789Z,2.20
2022-12-24T10:23:37.279Z,2.20
2022-12-24T10:26:17.055Z,1.70
2022-12-24T10:28:52.307Z,2.27
2022-12-24T10:31:26.445Z,1.80
2022-12-24T10:34:15.697Z,1.93
2022-12-24T10:36:45.192Z,1.80
2022-12-24T10:39:25.382Z,2.10
2022-12-24T10:42:01.046Z,1.93
2022-12-24T10:44:34.270Z,1.90
2022-12-24T10:47:05.063Z,2.00
2022-12-24T10:49:39.103Z,1.90
2022-12-24T10:52:25.175Z,2.03
2022-12-24T10:55:24.245Z,1.77
2022-12-24T10:58:06.984Z,1.70
2022-12-24T11:00:38.047Z,1.45
2022-12-24T11:03:14.509Z,1.37
2022-12-24T11:05:44.027Z,1.97
2022-12-24T11:08:20.426Z,1.43
2022-12-24T11:11:03.260Z,1.60
2022-12-24T11:13:45.676Z,1.90
2022-12-24T11:16:36.711Z,1.27
2022-12-24T11:19:10.049Z,2.00
2022-12-24T11:21:42.737Z,1.83
2022-12-24T11:24:31.945Z,1.63
2022-12-24T11:27:31.898Z,1.30
2022-12-24T11:30:30.065Z,1.63
2022-12-24T11:33:09.870Z,1.40
2022-12-24T11:35:46.390Z,1.73
2022-12-24T11:38:26.285Z,1.27
2022-12-24T11:41:06.598Z,1.53
2022-12-24T11:43:46.321Z,1.60
2022-12-24T11:46:38.233Z,1.23
2022-12-24T11:49:14.823Z,1.10
2022-12-24T11:52:03.675Z,1.30
2022-12-24T11:54:37.557Z,1.30
2022-12-24T11:57:10.289Z,1.27
2022-12-24T11:59:49.554Z,0.80
2022-12-24T12:02:34.637Z,1.17
2022-12-24T12:05:26.073Z,1.17
2022-12-24T12:08:00.132Z,1.30
2022-12-24T12:10:41.070Z,1.07
2022-12-24T12:13:34.252Z,1.47
2022-12-24T12:16:37.201Z,1.07
2022-12-24T12:19:15.011Z,1.17
2022-12-24T12:21:45.086Z,1.13
2022-12-24T12:24:32.681Z,1.20
2022-12-24T12:27:28.094Z,1.30
2022-12-24T12:30:04.638Z,1.50
2022-12-24T12:33:16.978Z,1.40
2022-12-24T12:35:48.300Z,1.00
2022-12-24T12:38:29.264Z,1.20
2022-12-24T12:41:34.927Z,1.40
2022-12-24T12:44:20.975Z,0.70
2022-12-24T12:47:26.802Z,1.20
2022-12-24T12:50:15.983Z,0.90
2022-12-24T12:53:30.233Z,1.03
2022-12-24T12:56:35.644Z,1.17
2022-12-24T12:59:12.635Z,1.10
2022-12-24T13:02:15.314Z,1.00
2022-12-24T13:05:10.393Z,1.13
2022-12-24T13:08:07.309Z,1.20
2022-12-24T13:11:14.676Z,1.07
2022-12-24T13:13:57.453Z,0.90
2022-12-24T13:16:37.661Z,0.87
2022-12-24T13:19:42.050Z,0.83
2022-12-24T13:22:21.468Z,0.77
2022-12-24T13:24:54.927Z,1.30
2022-12-24T13:27:34.484Z,0.97
2022-12-24T13:30:25.157Z,1.00
2022-12-24T13:32:56.061Z,1.00
2022-12-24T13:35:37.481Z,0.90
2022-12-24T13:38:31.399Z,1.07
2022-12-24T13:41:41.143Z,1.10
2022-12-24T13:44:20.015Z,1.20
2022-12-24T13:47:19.791Z,1.13
2022-12-24T13:49:53.516Z,1.50
2022-12-24T13:52:30.566Z,1.10
2022-12-24T13:55:07.149Z,1.03
2022-12-24T13:58:01.507Z,1.00
2022-12-24T14:00:44.409Z,0.87
2022-12-24T14:03:42.009Z,0.60
2022-12-24T14:06:16.043Z,0.77
2022-12-24T14:08:49.372Z,0.80
2022-12-24T14:11:24.981Z,0.83
2022-12-24T14:14:07.750Z,0.87
2022-12-24T14:16:51.593Z,0.60
2022-12-24T14:19:43.582Z,1.00
2022-12-24T14:22:42.565Z,0.60
2022-12-24T14:25:24.447Z,0.60
2022-12-24T14:28:10.970Z,0.60
2022-12-24T14:30:40.411Z,0.57
2022-12-24T14:33:31.152Z,0.37
2022-12-24T14:36:02.552Z,0.63
2022-12-24T14:38:33.483Z,0.47
2022-12-24T14:41:10.127Z,0.70
2022-12-24T14:44:05.133Z,0.73
2022-12-24T14:46:47.995Z,0.60
2022-12-24T14:50:05.184Z,0.50
2022-12-24T14:53:09.361Z,0.43
2022-12-24T14:55:43.847Z,0.60
2022-12-24T14:58:29.419Z,0.50
2022-12-24T15:01:06.718Z,0.47
2022-12-24T15:03:36.285Z,0.47
2022-12-24T15:06:09.769Z,0.40
2022-12-24T15:08:43.567Z,0.60
2022-12-24T15:11:20.471Z,0.43
2022-12-24T15:14:00.494Z,0.47
2022-12-24T15:16:37.924Z,0.50
2022-12-24T15:19:12.132Z,0.60
2022-12-24T15:21:44.070Z,0.50
2022-12-24T15:24:35.627Z,0.63
2022-12-24T15:27:18.177Z,0.57
2022-12-24T15:29:51.468Z,0.47
2022-12-24T15:32:22.872Z,0.60
2022-12-24T15:34:56.366Z,0.60
2022-12-24T15:37:38.155Z,0.70
2022-12-24T15:40:23.703Z,0.50
2022-12-24T15:42:54.165Z,0.50
2022-12-24T15:45:28.771Z,0.50
2022-12-24T15:48:12.094Z,0.70
2022-12-24T15:50:51.998Z,0.60
2022-12-24T15:53:32.183Z,0.60
2022-12-24T15:56:14.773Z,0.63
2022-12-24T15:58:46.946Z,0.90
2022-12-24T16:01:21.131Z,1.00
2022-12-24T16:03:58.203Z,1.20
2022-12-24T16:06:28.939Z,1.07
2022-12-24T16:08:58.729Z,0.70
2022-12-24T16:11:37.481Z,0.97
2022-12-24T16:14:18.802Z,1.00
2022-12-24T16:16:54.596Z,0.80
2022-12-24T16:19:36.045Z,0.93
2022-12-24T16:22:06.627Z,0.80
2022-12-24T16:24:37.848Z,0.70
2022-12-24T16:27:11.895Z,0.90
2022-12-24T16:29:41.919Z,1.00
2022-12-24T16:32:31.123Z,0.60
2022-12-24T16:35:03.132Z,0.80
2022-12-24T16:37:32.582Z,0.90
2022-12-24T16:40:02.922Z,0.80
2022-12-24T16:42:52.464Z,0.67
2022-12-24T16:45:21.908Z,0.80
2022-12-24T16:47:51.516Z,0.90
2022-12-24T16:50:21.814Z,0.80
2022-12-24T16:52:51.339Z,0.87
2022-12-24T16:55:20.799Z,0.60
2022-12-24T16:57:50.238Z,0.63
2022-12-24T17:00:23.384Z,0.80
2022-12-24T17:02:53.226Z,0.90
2022-12-24T17:05:23.983Z,0.73
2022-12-24T17:07:53.570Z,0.80
2022-12-24T17:10:23.029Z,0.63
2022-12-24T17:12:52.492Z,0.57
2022-12-24T17:15:22.052Z,0.60
2022-12-24T17:17:51.458Z,0.60
2022-12-24T17:20:24.309Z,0.70
2022-12-24T17:22:53.117Z,0.40
2022-12-24T17:25:22.813Z,0.60
2022-12-24T17:27:52.249Z,0.83
2022-12-24T17:30:21.791Z,0.70
2022-12-24T17:32:51.231Z,0.80
2022-12-24T17:35:20.693Z,0.67
2022-12-24T17:37:50.125Z,0.63
2022-12-24T17:40:20.053Z,0.80
2022-12-24T17:42:49.496Z,0.77
2022-12-24T17:45:19.036Z,0.73
2022-12-24T17:47:48.483Z,0.80
2022-12-24T17:50:18.157Z,0.87
2022-12-24T17:52:47.584Z,0.80
2022-12-24T17:55:17.053Z,1.07
2022-12-24T17:57:46.501Z,0.80
2022-12-24T18:00:17.432Z,0.67
2022-12-24T18:02:46.987Z,1.00
2022-12-24T18:05:16.505Z,0.90
2022-12-24T18:07:45.943Z,0.70
2022-12-24T18:10:15.573Z,1.00
2022-12-24T18:12:45.005Z,1.07
2022-12-24T18:15:14.554Z,0.77
2022-12-24T18:17:43.991Z,1.03
2022-12-24T18:20:14.005Z,1.13
2022-12-24T18:22:43.442Z,0.90
2022-12-24T18:25:12.967Z,1.03
2022-12-24T18:27:42.687Z,0.90
2022-12-24T18:30:12.843Z,1.20
2022-12-24T18:32:42.295Z,0.87
2022-12-24T18:35:12.685Z,0.90
2022-12-24T18:37:42.544Z,0.90
2022-12-24T18:40:12.408Z,1.07
2022-12-24T18:42:42.935Z,1.17
2022-12-24T18:45:12.823Z,1.00
2022-12-24T18:47:42.285Z,0.90
2022-12-24T18:50:11.745Z,0.93
2022-12-24T18:52:41.174Z,1.10
2022-12-24T18:55:11.277Z,1.00
2022-12-24T18:57:40.722Z,1.20
2022-12-24T19:00:11.477Z,1.10
2022-12-24T19:02:41.019Z,0.80
2022-12-24T19:05:10.549Z,1.10
2022-12-24T19:07:40.029Z,1.03
2022-12-24T19:10:10.567Z,1.20
2022-12-24T19:12:40.300Z,1.17
2022-12-24T19:15:10.154Z,1.03
2022-12-24T19:17:39.616Z,1.10
2022-12-24T19:20:10.366Z,0.80
2022-12-24T19:22:39.855Z,1.10
2022-12-24T19:25:10.217Z,1.10
2022-12-24T19:27:39.660Z,1.10
2022-12-24T19:30:28.598Z,1.07
2022-12-24T19:32:58.038Z,0.70
2022-12-24T19:35:28.988Z,0.80
2022-12-24T19:37:59.273Z,0.60
2022-12-24T19:40:29.040Z,0.90
2022-12-24T19:42:58.523Z,0.90
2022-12-24T19:45:28.015Z,1.03
2022-12-24T19:47:57.848Z,0.97
2022-12-24T19:50:27.302Z,0.90
2022-12-24T19:52:56.818Z,1.07
2022-12-24T19:55:26.595Z,0.97
2022-12-24T19:57:56.039Z,1.20
2022-12-24T20:00:25.696Z,0.90
2022-12-24T20:02:55.228Z,1.07
2022-12-24T20:05:24.780Z,1.07
2022-12-24T20:07:54.311Z,1.07
2022-12-24T20:10:23.761Z,2.10
2022-12-24T20:12:53.228Z,1.80
2022-12-24T20:15:22.662Z,1.47
2022-12-24T20:17:53.587Z,1.50
2022-12-24T20:20:23.055Z,1.23
2022-12-24T20:22:52.514Z,1.33
2022-12-24T20:25:21.995Z,1.10
2022-12-24T20:27:51.670Z,1.40
2022-12-24T20:30:21.248Z,1.17
2022-12-24T20:32:56.115Z,1.00
2022-12-24T20:35:26.672Z,0.90
2022-12-24T20:37:56.131Z,0.70
2022-12-24T20:40:25.943Z,0.80
2022-12-24T20:42:55.560Z,1.20
2022-12-24T20:45:25.085Z,1.23
2022-12-24T20:47:54.564Z,1.27
2022-12-24T20:50:25.388Z,1.10
2022-12-24T20:52:55.334Z,0.87
2022-12-24T20:55:25.255Z,0.77
2022-12-24T20:57:54.711Z,0.80
2022-12-24T21:00:25.075Z,0.60
2022-12-24T21:02:54.979Z,0.60
2022-12-24T21:05:24.626Z,0.60
2022-12-24T21:07:54.079Z,0.80
2022-12-24T21:10:26.742Z,0.70
2022-12-24T21:12:59.022Z,0.70
2022-12-24T21:15:35.563Z,0.80
2022-12-24T21:18:06.982Z,0.73
2022-12-24T21:20:37.024Z,0.63
2022-12-24T21:23:06.994Z,0.70
2022-12-24T21:25:36.465Z,0.53
2022-12-24T21:28:05.976Z,0.60
2022-12-24T21:30:35.462Z,0.47
2022-12-24T21:33:04.947Z,0.70
2022-12-24T21:35:34.424Z,0.67
2022-12-24T21:38:03.860Z,0.90
2022-12-24T21:40:33.337Z,0.63
2022-12-24T21:43:02.768Z,0.83
2022-12-24T21:45:32.366Z,1.10
2022-12-24T21:48:03.463Z,0.70
2022-12-24T21:50:50.755Z,0.70
2022-12-24T21:53:38.043Z,0.60
2022-12-24T21:56:12.867Z,0.57
2022-12-24T21:58:42.340Z,0.70
2022-12-24T22:01:14.197Z,0.70
2022-12-24T22:03:43.865Z,0.73
2022-12-24T22:06:15.267Z,1.00
2022-12-24T22:09:02.440Z,0.60
2022-12-24T22:11:54.200Z,0.70
2022-12-24T22:14:21.349Z,0.60
2022-12-24T22:16:50.878Z,0.67
2022-12-24T22:19:20.375Z,0.67
2022-12-24T22:21:49.861Z,0.60
2022-12-24T22:24:19.570Z,1.00
2022-12-24T22:26:49.006Z,0.70
2022-12-24T22:29:18.447Z,0.70
2022-12-24T22:31:47.906Z,0.53
2022-12-24T22:34:17.359Z,0.63
2022-12-24T22:36:46.905Z,0.80
2022-12-24T22:39:16.341Z,0.93
2022-12-24T22:41:45.854Z,0.53
2022-12-24T22:44:15.295Z,0.60
2022-12-24T22:46:45.252Z,0.70
2022-12-24T22:49:15.282Z,0.70
2022-12-24T22:51:44.743Z,0.70
2022-12-24T22:54:14.177Z,0.50
2022-12-24T22:56:44.077Z,0.80
2022-12-24T22:59:15.404Z,0.70
2022-12-24T23:01:47.901Z,0.57
2022-12-24T23:04:17.770Z,0.53
2022-12-24T23:06:47.297Z,0.80
2022-12-24T23:09:17.571Z,0.70
2022-12-24T23:11:47.399Z,0.70
2022-12-24T23:14:40.369Z,0.70
2022-12-24T23:17:10.874Z,0.50
2022-12-24T23:19:40.619Z,0.47
2022-12-24T23:22:11.251Z,0.60
2022-12-24T23:24:41.533Z,0.60
2022-12-24T23:27:11.017Z,0.50
2022-12-24T23:29:40.467Z,0.57
2022-12-24T23:32:09.917Z,0.57
2022-12-24T23:34:39.371Z,0.70
2022-12-24T23:37:08.829Z,0.50
2022-12-24T23:39:38.279Z,0.40
2022-12-24T23:42:07.727Z,0.57
2022-12-24T23:44:37.170Z,0.50
2022-12-24T23:47:06.895Z,0.63
2022-12-24T23:49:36.655Z,0.50
2022-12-24T23:52:07.695Z,0.50
2022-12-24T23:54:37.114Z,0.70
2022-12-24T23:57:06.582Z,0.50
2022-12-24T23:59:36.650Z,0.60
